createdAt,value
2018-12-13T00:00:49.378Z,25.30
2018-12-13T00:03:31.635Z,25.67
2018-12-13T00:06:13.479Z,27.37
2018-12-13T00:08:56.355Z,28.23
2018-12-13T00:11:38.751Z,29.00
2018-12-13T00:14:21.376Z,26.37
2018-12-13T00:17:03.960Z,23.50
2018-12-13T00:19:46.611Z,25.17
2018-12-13T00:22:29.817Z,25.97
2018-12-13T00:25:12.451Z,26.67
2018-12-13T00:27:55.247Z,25.87
2018-12-13T00:30:38.266Z,27.13
2018-12-13T00:33:20.581Z,29.60
2018-12-13T00:36:02.988Z,30.70
2018-12-13T00:38:45.069Z,29.97
2018-12-13T00:41:27.811Z,27.57
2018-12-13T00:44:10.691Z,30.87
2018-12-13T00:46:52.459Z,32.97
2018-12-13T00:49:34.704Z,32.23
2018-12-13T00:52:16.843Z,31.33
2018-12-13T00:54:59.064Z,32.40
2018-12-13T00:57:41.700Z,33.90
2018-12-13T01:00:24.019Z,37.70
2018-12-13T01:03:06.464Z,39.13
2018-12-13T01:05:50.926Z,36.77
2018-12-13T01:08:33.666Z,43.70
2018-12-13T01:11:16.735Z,41.80
2018-12-13T01:13:58.861Z,37.17
2018-12-13T01:16:41.573Z,32.73
2018-12-13T01:19:23.308Z,37.60
2018-12-13T01:22:05.446Z,38.37
2018-12-13T01:24:47.573Z,40.17
2018-12-13T01:27:30.015Z,45.07
2018-12-13T01:30:12.506Z,39.77
2018-12-13T01:32:55.612Z,40.47
2018-12-13T01:35:37.584Z,42.30
2018-12-13T01:38:20.021Z,50.43
2018-12-13T01:41:02.446Z,46.27
2018-12-13T01:43:46.056Z,43.87
2018-12-13T01:46:28.281Z,51.53
2018-12-13T01:49:10.344Z,51.43
2018-12-13T01:51:53.020Z,49.90
2018-12-13T01:54:35.090Z,50.77
2018-12-13T01:57:17.678Z,51.57
2018-12-13T02:00:00.656Z,57.47
2018-12-13T02:02:42.714Z,49.97
2018-12-13T02:05:25.213Z,52.17
2018-12-13T02:08:07.521Z,56.23
2018-12-13T02:10:50.138Z,59.20
2018-12-13T02:13:32.549Z,57.63
2018-12-13T02:16:15.263Z,59.03
2018-12-13T02:18:57.680Z,54.20
2018-12-13T02:21:40.894Z,45.67
2018-12-13T02:24:23.680Z,48.47
2018-12-13T02:27:06.031Z,52.43
2018-12-13T02:29:48.007Z,44.60
2018-12-13T02:32:30.544Z,44.43
2018-12-13T02:35:13.518Z,45.97
2018-12-13T02:37:55.951Z,46.30
2018-12-13T02:40:37.973Z,49.07
2018-12-13T02:43:20.452Z,47.03
2018-12-13T02:46:04.066Z,47.10
2018-12-13T02:48:47.199Z,46.37
2018-12-13T02:51:30.108Z,41.93
2018-12-13T02:54:13.649Z,37.73
2018-12-13T02:56:56.365Z,39.53
2018-12-13T02:59:38.859Z,38.10
2018-12-13T03:02:21.682Z,38.10
2018-12-13T03:05:05.097Z,33.90
2018-12-13T03:07:48.237Z,37.03
2018-12-13T03:10:30.925Z,30.40
2018-12-13T03:13:13.949Z,32.57
2018-12-13T03:15:56.242Z,26.00
2018-12-13T03:18:38.973Z,26.43
2018-12-13T03:21:21.011Z,24.90
2018-12-13T03:24:03.795Z,27.20
2018-12-13T03:26:46.327Z,28.97
2018-12-13T03:29:28.352Z,31.07
2018-12-13T03:32:10.575Z,30.27
2018-12-13T03:34:53.196Z,27.03
2018-12-13T03:37:35.582Z,27.70
2018-12-13T03:40:18.167Z,30.80
2018-12-13T03:43:00.885Z,29.90
2018-12-13T03:45:43.159Z,31.30
2018-12-13T03:48:26.697Z,34.83
2018-12-13T03:51:09.351Z,33.90
2018-12-13T03:53:52.020Z,33.17
2018-12-13T03:56:34.984Z,31.53
2018-12-13T03:59:17.760Z,35.73
2018-12-13T04:02:00.476Z,31.50
2018-12-13T04:04:42.839Z,39.77
2018-12-13T04:07:27.842Z,34.70
2018-12-13T04:10:09.126Z,35.30
2018-12-13T04:12:51.862Z,35.27
2018-12-13T04:15:34.861Z,32.73
2018-12-13T04:18:16.963Z,32.17
2018-12-13T04:20:59.315Z,29.47
2018-12-13T04:23:41.799Z,34.40
2018-12-13T04:26:24.260Z,33.53
2018-12-13T04:29:06.719Z,29.40
2018-12-13T04:31:49.403Z,27.97
2018-12-13T04:34:32.226Z,34.33
2018-12-13T04:37:14.048Z,33.37
2018-12-13T04:39:56.680Z,28.47
2018-12-13T04:42:39.488Z,28.10
2018-12-13T04:45:21.793Z,32.37
2018-12-13T04:48:05.282Z,31.27
2018-12-13T04:50:48.383Z,28.03
2018-12-13T04:53:30.376Z,34.43
2018-12-13T04:56:13.324Z,32.97
2018-12-13T04:58:56.573Z,30.10
2018-12-13T05:01:39.066Z,26.77
2018-12-13T05:04:22.292Z,32.57
2018-12-13T05:07:05.518Z,31.87
2018-12-13T05:09:47.526Z,29.37
2018-12-13T05:12:30.231Z,33.03
2018-12-13T05:15:12.333Z,29.77
2018-12-13T05:17:54.737Z,31.57
2018-12-13T05:20:37.555Z,36.47
2018-12-13T05:23:19.657Z,29.67
2018-12-13T05:26:02.178Z,31.67
2018-12-13T05:28:44.483Z,33.33
2018-12-13T05:31:26.822Z,30.07
2018-12-13T05:34:09.371Z,28.97
2018-12-13T05:36:52.258Z,37.93
2018-12-13T05:39:34.327Z,30.67
2018-12-13T05:42:16.885Z,32.37
2018-12-13T05:44:59.354Z,34.73
2018-12-13T05:47:41.995Z,30.23
2018-12-13T05:50:24.644Z,36.47
2018-12-13T05:53:07.564Z,36.50
2018-12-13T05:55:50.034Z,33.23
2018-12-13T05:58:32.443Z,33.97
2018-12-13T06:01:14.268Z,37.73
2018-12-13T06:03:56.729Z,38.40
2018-12-13T06:06:39.105Z,33.47
2018-12-13T06:09:20.916Z,37.57
2018-12-13T06:12:03.102Z,33.87
2018-12-13T06:14:44.902Z,36.20
2018-12-13T06:17:44.070Z,41.77
2018-12-13T06:21:29.400Z,37.53
2018-12-13T06:24:15.069Z,37.20
2018-12-13T06:26:56.618Z,34.60
2018-12-13T06:29:41.772Z,38.93
2018-12-13T06:32:23.108Z,40.47
2018-12-13T06:35:05.973Z,40.43
2018-12-13T06:37:47.767Z,46.87
2018-12-13T06:40:29.560Z,37.40
2018-12-13T06:43:12.935Z,43.23
2018-12-13T06:45:58.908Z,37.73
2018-12-13T06:48:41.327Z,36.53
2018-12-13T06:51:24.126Z,36.93
2018-12-13T06:54:06.533Z,44.33
2018-12-13T06:56:48.854Z,40.80
2018-12-13T06:59:31.604Z,35.63
2018-12-13T07:02:13.582Z,37.87
2018-12-13T07:04:59.037Z,35.20
2018-12-13T07:07:40.941Z,39.73
2018-12-13T07:10:23.965Z,41.33
2018-12-13T07:13:06.002Z,36.10
2018-12-13T07:15:48.689Z,40.57
2018-12-13T07:18:30.832Z,37.50
2018-12-13T07:21:12.474Z,35.17
2018-12-13T07:23:54.253Z,37.07
2018-12-13T07:26:36.554Z,40.17
2018-12-13T07:29:18.555Z,42.20
2018-12-13T07:32:00.757Z,38.00
2018-12-13T07:34:43.466Z,36.33
2018-12-13T07:37:25.692Z,43.90
2018-12-13T07:40:09.197Z,39.27
2018-12-13T07:42:51.030Z,40.27
2018-12-13T07:45:33.813Z,42.50
2018-12-13T07:48:15.954Z,45.60
2018-12-13T07:50:58.548Z,39.20
2018-12-13T07:53:41.252Z,38.27
2018-12-13T07:56:24.088Z,38.50
2018-12-13T07:59:06.462Z,41.50
2018-12-13T08:01:48.992Z,41.60
2018-12-13T08:04:31.852Z,41.07
2018-12-13T08:07:14.469Z,36.77
2018-12-13T08:09:56.611Z,36.80
2018-12-13T08:12:39.622Z,38.17
2018-12-13T08:15:21.662Z,41.00
2018-12-13T08:18:03.824Z,42.33
2018-12-13T08:20:46.090Z,39.73
2018-12-13T08:23:28.643Z,40.93
2018-12-13T08:26:10.972Z,41.80
2018-12-13T08:28:52.650Z,39.33
2018-12-13T08:31:36.177Z,41.93
2018-12-13T08:34:19.393Z,46.43
2018-12-13T08:37:01.726Z,41.50
2018-12-13T08:39:44.529Z,40.33
2018-12-13T08:42:26.722Z,42.80
2018-12-13T08:45:09.078Z,40.03
2018-12-13T08:47:51.359Z,39.73
2018-12-13T08:50:34.049Z,35.73
2018-12-13T08:53:16.092Z,35.30
2018-12-13T08:55:57.670Z,34.50
2018-12-13T08:58:39.737Z,41.87
2018-12-13T09:01:22.162Z,38.23
2018-12-13T09:04:03.753Z,41.67
2018-12-13T09:06:45.226Z,40.30
2018-12-13T09:09:26.936Z,37.03
2018-12-13T09:12:09.811Z,38.00
2018-12-13T09:14:52.059Z,38.17
2018-12-13T09:17:34.241Z,37.50
2018-12-13T09:20:15.871Z,37.77
2018-12-13T09:22:58.038Z,41.97
2018-12-13T09:25:39.639Z,36.70
2018-12-13T09:28:21.307Z,39.10
2018-12-13T09:31:03.910Z,35.67
2018-12-13T09:33:46.821Z,34.80
2018-12-13T09:36:28.518Z,37.17
2018-12-13T09:39:10.125Z,34.20
2018-12-13T09:41:52.467Z,31.43
2018-12-13T09:44:35.447Z,36.47
2018-12-13T09:47:17.972Z,38.80
2018-12-13T09:50:00.362Z,35.57
2018-12-13T09:52:43.464Z,38.57
2018-12-13T09:55:25.773Z,38.53
2018-12-13T09:58:08.181Z,34.13
2018-12-13T10:00:50.996Z,33.00
2018-12-13T10:03:32.794Z,38.47
2018-12-13T10:06:15.108Z,39.10
2018-12-13T10:08:56.780Z,42.40
2018-12-13T10:11:38.033Z,38.50
2018-12-13T10:14:20.214Z,43.63
2018-12-13T10:17:02.394Z,41.33
2018-12-13T10:19:43.986Z,41.73
2018-12-13T10:22:25.387Z,38.20
2018-12-13T10:25:06.825Z,44.20
2018-12-13T10:27:48.417Z,37.67
2018-12-13T10:30:30.223Z,42.10
2018-12-13T10:33:11.725Z,43.97
2018-12-13T10:35:54.609Z,43.50
2018-12-13T10:38:36.450Z,42.93
2018-12-13T10:41:18.335Z,42.27
2018-12-13T10:44:00.226Z,42.10
2018-12-13T10:46:42.517Z,40.10
2018-12-13T10:49:23.994Z,38.43
2018-12-13T10:52:05.697Z,39.87
2018-12-13T10:54:47.708Z,41.07
2018-12-13T10:57:30.021Z,38.90
2018-12-13T11:00:19.455Z,39.50
2018-12-13T11:03:21.043Z,41.63
2018-12-13T11:06:05.680Z,42.47
2018-12-13T11:08:50.293Z,42.83
2018-12-13T11:11:43.230Z,38.33
2018-12-13T11:14:33.534Z,34.20
2018-12-13T11:17:19.812Z,36.27
2018-12-13T11:20:03.862Z,37.13
2018-12-13T11:22:47.360Z,39.50
2018-12-13T11:25:31.827Z,36.73
2018-12-13T11:28:26.155Z,33.60
2018-12-13T11:31:10.316Z,36.40
2018-12-13T11:33:52.061Z,37.37
2018-12-13T11:36:34.173Z,30.83
2018-12-13T11:39:16.678Z,36.87
2018-12-13T11:41:57.939Z,28.03
2018-12-13T11:44:39.830Z,33.67
2018-12-13T11:47:25.681Z,34.10
2018-12-13T11:50:08.516Z,28.40
2018-12-13T11:52:50.397Z,29.23
2018-12-13T11:55:34.517Z,29.50
2018-12-13T11:58:16.906Z,32.07
2018-12-13T12:00:58.677Z,31.83
2018-12-13T12:03:40.694Z,31.80
2018-12-13T12:06:23.111Z,33.70
2018-12-13T12:09:12.011Z,31.10
2018-12-13T12:11:51.165Z,35.47
2018-12-13T12:14:34.557Z,28.57
2018-12-13T12:17:17.303Z,30.17
2018-12-13T12:20:03.662Z,28.57
2018-12-13T12:22:46.779Z,27.73
2018-12-13T12:25:30.064Z,29.30
2018-12-13T12:28:12.511Z,28.23
2018-12-13T12:30:55.175Z,26.97
2018-12-13T12:33:37.391Z,23.90
2018-12-13T12:36:19.954Z,25.47
2018-12-13T12:39:04.466Z,23.87
2018-12-13T12:41:57.283Z,26.53
2018-12-13T12:44:49.329Z,23.63
2018-12-13T12:47:32.557Z,20.90
2018-12-13T12:50:17.585Z,19.73
2018-12-13T12:52:59.291Z,23.17
2018-12-13T12:55:40.968Z,21.87
2018-12-13T12:58:23.691Z,25.20
2018-12-13T13:01:06.261Z,21.70
2018-12-13T13:03:48.366Z,20.63
2018-12-13T13:06:35.361Z,23.87
2018-12-13T13:09:25.057Z,22.03
2018-12-13T13:12:05.635Z,24.43
2018-12-13T13:14:48.345Z,20.73
2018-12-13T13:17:30.133Z,19.67
2018-12-13T13:20:12.128Z,21.10
2018-12-13T13:22:54.306Z,21.27
2018-12-13T13:25:35.858Z,17.93
2018-12-13T13:28:17.297Z,21.37
2018-12-13T13:30:59.432Z,19.10
2018-12-13T13:33:41.599Z,17.73
2018-12-13T13:36:23.182Z,16.30
2018-12-13T13:39:07.170Z,16.17
2018-12-13T13:41:49.322Z,15.83
2018-12-13T13:44:37.980Z,15.90
2018-12-13T13:47:20.729Z,17.77
2018-12-13T13:50:03.092Z,19.10
2018-12-13T13:52:45.239Z,15.10
2018-12-13T13:55:27.189Z,15.60
2018-12-13T13:58:10.087Z,17.37
2018-12-13T14:00:52.295Z,16.90
2018-12-13T14:03:34.576Z,16.53
2018-12-13T14:06:16.615Z,14.23
2018-12-13T14:09:04.188Z,14.87
2018-12-13T14:11:46.240Z,16.30
2018-12-13T14:14:28.433Z,17.03
2018-12-13T14:17:10.950Z,17.03
2018-12-13T14:19:53.384Z,15.53
2018-12-13T14:22:35.816Z,14.80
2018-12-13T14:25:18.174Z,15.40
2018-12-13T14:28:00.389Z,15.57
2018-12-13T14:30:43.533Z,17.77
2018-12-13T14:33:25.901Z,15.60
2018-12-13T14:36:08.747Z,14.83
2018-12-13T14:38:51.030Z,16.40
2018-12-13T14:41:35.073Z,15.17
2018-12-13T14:44:22.645Z,13.67
2018-12-13T14:47:04.030Z,15.13
2018-12-13T14:49:45.577Z,14.57
2018-12-13T14:52:27.253Z,12.13
2018-12-13T14:55:09.718Z,14.20
2018-12-13T14:57:52.293Z,14.87
2018-12-13T15:00:34.493Z,13.27
2018-12-13T15:03:16.781Z,16.03
2018-12-13T15:05:58.506Z,13.70
2018-12-13T15:08:41.113Z,13.60
2018-12-13T15:11:23.910Z,12.27
2018-12-13T15:14:06.226Z,12.97
2018-12-13T15:16:48.550Z,15.23
2018-12-13T15:19:29.836Z,15.10
2018-12-13T15:22:12.840Z,14.83
2018-12-13T15:24:55.258Z,13.40
2018-12-13T15:27:37.129Z,11.03
2018-12-13T15:30:20.708Z,13.50
2018-12-13T15:33:02.782Z,14.23
2018-12-13T15:35:44.270Z,11.93
2018-12-13T15:38:26.549Z,12.77
2018-12-13T15:41:08.717Z,11.83
2018-12-13T15:43:51.353Z,15.20
2018-12-13T15:46:33.515Z,12.83
2018-12-13T15:49:15.784Z,12.80
2018-12-13T15:51:57.682Z,11.87
2018-12-13T15:54:40.208Z,12.23
2018-12-13T15:57:22.470Z,14.17
2018-12-13T16:00:04.562Z,14.40
2018-12-13T16:02:46.617Z,14.80
2018-12-13T16:05:28.082Z,13.83
2018-12-13T16:08:10.479Z,11.53
2018-12-13T16:10:53.791Z,14.37
2018-12-13T16:13:35.657Z,18.10
2018-12-13T16:16:17.397Z,11.70
2018-12-13T16:18:59.586Z,14.27
2018-12-13T16:21:41.746Z,14.77
2018-12-13T16:24:24.024Z,13.63
2018-12-13T16:27:05.746Z,14.13
2018-12-13T16:29:47.390Z,16.33
2018-12-13T16:32:31.950Z,13.13
2018-12-13T16:35:18.935Z,14.13
2018-12-13T16:38:00.783Z,15.13
2018-12-13T16:40:43.546Z,15.13
2018-12-13T16:43:26.473Z,14.57
2018-12-13T16:46:08.002Z,16.00
2018-12-13T16:48:49.271Z,16.77
2018-12-13T16:51:31.119Z,15.10
2018-12-13T16:54:13.366Z,19.87
2018-12-13T16:56:55.224Z,16.93
2018-12-13T16:59:37.685Z,18.87
2018-12-13T17:02:20.537Z,18.40
2018-12-13T17:05:03.902Z,17.63
2018-12-13T17:07:47.335Z,20.03
2018-12-13T17:10:30.110Z,20.07
2018-12-13T17:13:12.649Z,18.50
2018-12-13T17:15:56.485Z,22.40
2018-12-13T17:18:45.972Z,19.23
2018-12-13T17:21:29.232Z,18.90
2018-12-13T17:24:12.554Z,17.23
2018-12-13T17:26:55.030Z,20.50
2018-12-13T17:29:37.526Z,18.93
2018-12-13T17:32:20.616Z,20.37
2018-12-13T17:35:02.522Z,19.77
2018-12-13T17:37:44.696Z,18.63
2018-12-13T17:40:27.878Z,19.52
2018-12-13T17:43:09.452Z,19.10
2018-12-13T17:45:50.782Z,19.30
2018-12-13T17:48:33.000Z,17.60
2018-12-13T17:51:17.642Z,16.83
2018-12-13T17:54:01.057Z,14.83
2018-12-13T17:56:49.434Z,18.13
2018-12-13T17:59:40.760Z,17.20
2018-12-13T18:02:23.409Z,17.80
2018-12-13T18:05:06.434Z,17.33
2018-12-13T18:07:48.297Z,14.97
2018-12-13T18:10:31.185Z,19.03
2018-12-13T18:13:13.604Z,17.70
2018-12-13T18:15:55.617Z,18.83
2018-12-13T18:18:37.507Z,18.77
2018-12-13T18:21:19.801Z,17.27
2018-12-13T18:24:02.094Z,17.63
2018-12-13T18:26:43.758Z,18.67
2018-12-13T18:29:27.229Z,16.27
2018-12-13T18:32:08.711Z,18.70
2018-12-13T18:34:50.402Z,18.77
2018-12-13T18:37:32.718Z,19.00
2018-12-13T18:40:14.397Z,19.93
2018-12-13T18:43:09.384Z,17.97
2018-12-13T18:46:25.272Z,19.70
2018-12-13T18:49:07.719Z,21.57
2018-12-13T18:51:51.102Z,18.33
2018-12-13T18:54:33.561Z,17.43
2018-12-13T18:57:15.773Z,18.30
2018-12-13T18:59:57.403Z,19.77
2018-12-13T19:02:38.818Z,20.83
2018-12-13T19:05:20.596Z,18.43
2018-12-13T19:08:03.006Z,21.40
2018-12-13T19:10:44.461Z,20.77
2018-12-13T19:13:26.828Z,22.23
2018-12-13T19:16:08.574Z,20.07
2018-12-13T19:18:51.702Z,22.10
2018-12-13T19:21:42.591Z,22.93
2018-12-13T19:24:24.529Z,24.17
2018-12-13T19:27:06.589Z,21.40
2018-12-13T19:29:48.517Z,26.20
2018-12-13T19:32:31.182Z,29.73
2018-12-13T19:35:19.260Z,26.30
2018-12-13T19:37:58.054Z,25.70
2018-12-13T19:40:40.342Z,26.60
2018-12-13T19:43:24.045Z,26.30
2018-12-13T19:46:06.557Z,29.60
2018-12-13T19:48:48.722Z,22.90
2018-12-13T19:51:31.273Z,28.10
2018-12-13T19:54:13.608Z,30.30
2018-12-13T19:56:55.329Z,31.77
2018-12-13T19:59:37.832Z,32.30
2018-12-13T20:02:20.236Z,26.20
2018-12-13T20:05:03.159Z,31.10
2018-12-13T20:07:46.550Z,27.50
2018-12-13T20:10:29.107Z,25.60
2018-12-13T20:13:11.700Z,25.87
2018-12-13T20:15:54.415Z,23.87
2018-12-13T20:18:36.737Z,25.93
2018-12-13T20:21:19.434Z,24.20
2018-12-13T20:24:01.458Z,27.40
2018-12-13T20:26:43.941Z,23.80
2018-12-13T20:29:26.656Z,27.90
2018-12-13T20:32:09.049Z,25.83
2018-12-13T20:34:51.368Z,24.03
2018-12-13T20:37:33.672Z,23.57
2018-12-13T20:40:15.979Z,23.73
2018-12-13T20:42:59.203Z,25.03
2018-12-13T20:45:41.510Z,23.53
2018-12-13T20:48:23.523Z,26.40
2018-12-13T20:51:06.134Z,24.93
2018-12-13T20:53:48.853Z,25.13
2018-12-13T20:56:31.170Z,25.43
2018-12-13T20:59:13.245Z,23.60
2018-12-13T21:01:56.158Z,25.83
2018-12-13T21:04:38.266Z,25.53
2018-12-13T21:07:26.281Z,23.10
2018-12-13T21:10:10.709Z,22.70
2018-12-13T21:12:53.468Z,23.97
2018-12-13T21:15:36.391Z,26.83
2018-12-13T21:18:18.718Z,23.83
2018-12-13T21:21:01.295Z,24.80
2018-12-13T21:27:30.874Z,27.80
2018-12-13T21:30:14.214Z,30.43
2018-12-13T21:32:57.313Z,28.67
2018-12-13T21:35:41.010Z,29.60
2018-12-13T21:38:23.710Z,28.67
2018-12-13T21:41:06.679Z,32.33
2018-12-13T21:43:51.272Z,33.47
2018-12-13T21:46:36.431Z,27.07
2018-12-13T21:49:21.408Z,29.67
2018-12-13T21:52:04.113Z,31.07
2018-12-13T21:54:46.928Z,31.57
2018-12-13T21:57:30.616Z,32.60
2018-12-13T22:00:15.913Z,32.73
2018-12-13T22:03:00.221Z,38.67
2018-12-13T22:05:42.901Z,35.63
2018-12-13T22:08:25.679Z,35.87
2018-12-13T22:11:10.562Z,34.97
2018-12-13T22:13:57.140Z,39.17
2018-12-13T22:16:40.187Z,31.90
2018-12-13T22:19:24.389Z,35.40
2018-12-13T22:22:08.163Z,30.70
2018-12-13T22:24:51.716Z,33.83
2018-12-13T22:27:36.042Z,33.30
2018-12-13T22:30:18.915Z,34.57
2018-12-13T22:33:04.269Z,35.13
2018-12-13T22:35:47.870Z,33.77
2018-12-13T22:38:30.960Z,34.47
2018-12-13T22:41:14.746Z,34.47
2018-12-13T22:43:58.288Z,34.67
2018-12-13T22:46:41.229Z,38.43
2018-12-13T22:49:23.843Z,36.47
2018-12-13T22:52:06.997Z,38.30
2018-12-13T22:54:51.741Z,38.13
2018-12-13T22:57:34.259Z,40.37
2018-12-13T23:00:18.585Z,35.97
2018-12-13T23:03:03.110Z,37.40
2018-12-13T23:05:46.124Z,35.63
2018-12-13T23:08:29.114Z,40.23
2018-12-13T23:11:14.436Z,38.40
2018-12-13T23:13:57.912Z,41.03
2018-12-13T23:16:40.645Z,38.97
2018-12-13T23:19:25.103Z,39.83
2018-12-13T23:22:08.142Z,43.30
2018-12-13T23:24:52.295Z,47.00
2018-12-13T23:27:36.931Z,48.33
2018-12-13T23:30:20.990Z,42.73
2018-12-13T23:33:03.768Z,44.93
2018-12-13T23:35:46.148Z,35.37
2018-12-13T23:38:31.049Z,37.23
2018-12-13T23:41:14.697Z,36.60
2018-12-13T23:43:57.693Z,42.73
2018-12-13T23:46:40.532Z,35.33
2018-12-13T23:49:23.932Z,39.37
2018-12-13T23:52:07.117Z,37.37
2018-12-13T23:54:50.137Z,42.13
2018-12-13T23:57:35.288Z,39.97
